首页
METAR-TAF:

METAR-TAF

机场 :

Luni

Sarzana, 意大利

纬度: 44-05N, 经度: 009-59E, 海拔: 9米

当前天气观测

该预报发布于16小时和23分钟前的11:55 UTC
风速9节,风向
温度 21°C
湿度 83%
气压 1020 hPa
能见度10公里或以上
散云层高于2500英尺

METAR: LIQW 231155Z 09009KT 9999 SCT025 21/18 Q1020 RMK OVC SCT060 VIS MIN 9999 WIND THR18 14006KT BLU

时间: 06:18 (04:18 UTC)

预报

该预报发布于17小时和18分钟前的11:00 UTC
预报有效从23日的 12点(UTC)到 23日的 21点(UTC)
风速10节,风向东南
能见度10公里或以上
多云层高于2500英尺
短暂存在
从 23日的 12点(UTC)到 23日的 18点(UTC)
能見度: 5000
多云层高于2000英尺
雨, 轻雾
几率 30% :
短暂存在
从 23日的 12点(UTC)到 23日的 15点(UTC)
风速12节,风向南转南东
能見度: 3000
少量云层高于1500英尺, 积雨云.
多云层高于2000英尺
雷暴, 雨

TAF: LIQW 231100Z 2312/2321 13010KT 9999 BKN025 TEMPO 2312/2318 5000 RA BR BKN020 PROB30 TEMPO 2312/2315 15012KT 3000 TSRA FEW015CB BKN020

超过4000个机场的气象观测和天气预报(METAR&TAF报告)。

可查询的气象台以黄色和红色小点在地图上表示。

将鼠标移到小点上方,可查看气象台名称。

然后点击查看天气观测和预报。

如需切换地图:点击带黑十字的绿色按钮放大地图;点击带横线的绿色按钮缩小地图;或者点击绿色箭头查看邻近地区的地图。


METAR-TAF: